CheckWX is a tool to help pilots better visualize weather data.  It is not intended as a substitute for an official pre-flight weather briefing.

20:37:03 UTC

FMCZ TAF
Dzaoudzi Pamandzi International Airport
Dzaoudzi, Mayotte
TAF FMCZ 221700Z 2218/2318 27009KT 9999 FEW030 SCT070 PROB30 TEMPO 2308/2312 4000 SHRA BKN015CB

Mar-22@
18:00 UTC

Mar-22 @ 18:00 UTC

Mar-23@
18:00 UTC

Mar-23 @ 18:00 UTC

TAF FMCZ 221700Z 2218/2318 27009KT 9999 FEW030 SCT070
Wind
  • 270° at 9 KTS
Cloud Levels
  • Few at 3,000' AGL
  • Scattered at 7,000' AGL

Mar-23@
08:00 UTC

Mar-23 @ 08:00 UTC

Mar-23@
12:00 UTC

Mar-23 @ 12:00 UTC

PROB30 TEMPO 2308/2312 4000 SHRA BKN015CB

Temporary - 30% Likelihood

Temporary - 30% Likelihood during this time.

Conditions
Rain
Cloud Levels
  • Broken at 1,500' AGL